createdAt,value
2019-05-01T13:18:04.067Z,96592.00
2019-05-01T13:20:34.420Z,96594.00
2019-05-01T13:23:04.852Z,96590.00
2019-05-01T13:25:34.952Z,96599.00
2019-05-01T13:28:24.717Z,96593.00
2019-05-01T13:30:56.617Z,96598.00
2019-05-01T13:34:14.279Z,96590.00
2019-05-01T13:36:44.639Z,96592.00
2019-05-01T13:39:15.075Z,96591.00
2019-05-01T13:41:45.421Z,96581.00
2019-05-01T13:44:15.695Z,96583.00
2019-05-01T13:46:45.951Z,96577.00
2019-05-01T13:49:16.208Z,96579.00
2019-05-01T13:51:46.483Z,96579.00
2019-05-01T13:54:16.817Z,96568.00
2019-05-01T13:56:47.113Z,96566.00
2019-05-01T13:59:17.542Z,96565.00
2019-05-01T14:01:47.809Z,96569.00
2019-05-01T14:04:21.573Z,96559.00
2019-05-01T14:06:51.718Z,96562.00
2019-05-01T14:09:23.782Z,96559.00
2019-05-01T14:11:54.052Z,96558.00
2019-05-01T14:14:24.319Z,96546.00
2019-05-01T14:16:54.580Z,96544.00
2019-05-01T14:19:24.840Z,96549.00
2019-05-01T14:21:56.749Z,96551.00
2019-05-01T14:24:31.592Z,96539.00
2019-05-01T14:27:01.863Z,96541.00
2019-05-01T14:29:32.117Z,96536.00
2019-05-01T14:32:02.746Z,96537.00
2019-05-01T14:34:33.012Z,96534.00
2019-05-01T14:37:03.285Z,96537.00
2019-05-01T14:39:33.573Z,96523.00
2019-05-01T14:42:03.819Z,96527.00
2019-05-01T14:44:36.910Z,96535.00
2019-05-01T14:47:06.132Z,96533.00
2019-05-01T14:49:36.403Z,96536.00
2019-05-01T14:52:06.736Z,96532.00
2019-05-01T14:54:38.145Z,96532.00
2019-05-01T14:57:08.404Z,96526.00
2019-05-01T14:59:38.693Z,96529.00
2019-05-01T15:02:08.963Z,96519.00
